Pastos Bons, Brazil
Current Conditions -  °F | °C
As of 5:00 AM on Monday 26 Jan 2015 (Local Time) from SBTE Reporting Station
Broken Clouds Broken Clouds  
Wind Chill: 77°   Ceiling: 2700
Heat Index: 78°   Visibility: 6mi
Dew Point: 73°   Wind: 2mph
Humidity: 89%   Direction: 210°SSW
Pressure: 29.88"   Gusts: NA
Location:  6.6°S, 44.08°W
Report Text: SBTE 260800Z 21002KT 9999 BKN027 25/23 Q1012
Loading
Personal Weather Stations






























Interactive Weather Map New forecast layout! Learn more

10-Day Weather Forecast

Advertisements
Track Severe Weather on mobile